Rechercher aéroport 
image banner adimage banner ad
image banner ad

VIBR - Kullu Manali

Situé à Kullu, India

ICAO - VIBR, IATA - KUU

Données fournies par Airmate  

Information générale

Coordonnées: N31°52'37" E77°9'19"
Élévation : 3573 feet MSL.
 
Évalué:
Voir évaluations: [VIEW]


Voir autres Aéroports à Himachal Pradesh

Données opérationnelles

Accessible au public
Heure actuelle UTC:
Heure actuelle locale:
Météo
TAF: TAF VIBR 050500Z 0506/0515 23006KT 5000 HZ FEW030 SCT080 BECMG 0509/0512 3000 TSRA FEW035CB BKN080
Voir NOTAMs / SUP AIP / TFR affectant cet aéroport [VIEW]
Fréquences de communication: [VIEW]

Pistes:

Identifiant RWYQFULongueur (ft)Largeur (ft)SurfaceLDA (ft)
16159°349198ASP
34339°349198

Coordonnées de l'aéroport

Adresse: Kullu India

Vue satellite de VIBR